createdAt,value
2022-12-03T00:00:32.540Z,101712.19
2022-12-03T00:02:59.085Z,101709.56
2022-12-03T00:05:25.683Z,101694.03
2022-12-03T00:07:52.225Z,101702.59
2022-12-03T00:10:18.765Z,101701.72
2022-12-03T00:12:45.239Z,101693.13
2022-12-03T00:15:12.378Z,101699.94
2022-12-03T00:17:38.913Z,101693.97
2022-12-03T00:20:07.620Z,101688.84
2022-12-03T00:22:34.301Z,101709.25
2022-12-03T00:25:00.797Z,101705.84
2022-12-03T00:27:27.354Z,101701.53
2022-12-03T00:29:53.847Z,101703.25
2022-12-03T00:32:20.303Z,101692.09
2022-12-03T00:34:46.827Z,101690.31
2022-12-03T00:37:13.345Z,101688.66
2022-12-03T00:39:39.839Z,101680.91
2022-12-03T00:42:06.335Z,101683.47
2022-12-03T00:44:32.834Z,101683.53
2022-12-03T00:46:59.324Z,101687.09
2022-12-03T00:49:25.839Z,101683.63
2022-12-03T00:51:52.496Z,101681.16
2022-12-03T00:54:18.962Z,101688.84
2022-12-03T00:56:45.475Z,101689.75
2022-12-03T00:59:11.998Z,101685.41
2022-12-03T01:01:38.537Z,101685.50
2022-12-03T01:04:05.231Z,101688.06
2022-12-03T01:06:31.763Z,101683.72
2022-12-03T01:08:58.302Z,101677.84
2022-12-03T01:11:41.144Z,101688.03
2022-12-03T01:14:16.718Z,101683.72
2022-12-03T01:16:43.537Z,101684.56
2022-12-03T01:19:15.767Z,101684.56
2022-12-03T01:21:44.617Z,101684.50
2022-12-03T01:24:11.598Z,101690.41
2022-12-03T01:26:38.446Z,101693.91
2022-12-03T01:29:05.274Z,101698.91
2022-12-03T01:31:50.484Z,101688.63
2022-12-03T01:34:17.236Z,101694.56
2022-12-03T01:36:43.818Z,101689.34
2022-12-03T01:39:10.615Z,101680.00
2022-12-03T01:41:38.126Z,101684.16
2022-12-03T01:44:23.256Z,101691.78
2022-12-03T01:46:52.014Z,101692.66
2022-12-03T01:49:22.251Z,101691.59
2022-12-03T01:51:50.081Z,101691.56
2022-12-03T01:54:25.133Z,101687.25
2022-12-03T01:56:51.953Z,101698.38
2022-12-03T01:59:20.642Z,101687.19
2022-12-03T02:01:47.292Z,101683.69
2022-12-03T02:04:16.371Z,101687.97
2022-12-03T02:06:44.466Z,101690.47
2022-12-03T02:09:12.127Z,101687.09
2022-12-03T02:11:48.953Z,101679.25
2022-12-03T02:14:21.722Z,101686.88
2022-12-03T02:16:48.509Z,101682.63
2022-12-03T02:19:29.759Z,101674.03
2022-12-03T02:22:08.192Z,101679.97
2022-12-03T02:24:55.666Z,101678.31
2022-12-03T02:27:22.941Z,101681.81
2022-12-03T02:29:49.408Z,101677.47
2022-12-03T02:32:15.905Z,101677.47
2022-12-03T02:34:44.650Z,101668.97
2022-12-03T02:37:19.857Z,101668.84
2022-12-03T02:39:51.647Z,101675.66
2022-12-03T02:42:35.022Z,101673.06
2022-12-03T02:45:22.317Z,101656.75
2022-12-03T02:48:00.895Z,101664.56
2022-12-03T02:50:31.995Z,101656.78
2022-12-03T02:52:59.114Z,101648.25
2022-12-03T02:55:30.637Z,101652.56
2022-12-03T02:58:01.169Z,101658.59
2022-12-03T03:00:27.909Z,101649.22
2022-12-03T03:02:54.507Z,101649.28
2022-12-03T03:05:23.674Z,101641.50
2022-12-03T03:07:53.561Z,101650.03
2022-12-03T03:10:23.443Z,101648.44
2022-12-03T03:12:51.739Z,101653.59
2022-12-03T03:15:18.368Z,101658.63
2022-12-03T03:17:44.905Z,101652.59
2022-12-03T03:20:12.344Z,101649.91
2022-12-03T03:22:41.159Z,101654.25
2022-12-03T03:25:10.913Z,101654.25
2022-12-03T03:27:38.839Z,101649.06
2022-12-03T03:30:06.531Z,101655.94
2022-12-03T03:32:34.001Z,101655.94
2022-12-03T03:35:00.832Z,101653.31
2022-12-03T03:37:28.449Z,101656.78
2022-12-03T03:39:55.531Z,101654.16
2022-12-03T03:42:22.749Z,101644.78
2022-12-03T03:44:49.719Z,101653.44
2022-12-03T03:47:17.324Z,101639.63
2022-12-03T03:49:44.218Z,101643.06
2022-12-03T03:52:11.716Z,101649.94
2022-12-03T03:54:39.281Z,101644.69
2022-12-03T03:57:05.999Z,101645.53
2022-12-03T03:59:32.555Z,101643.00
2022-12-03T04:01:59.031Z,101645.59
2022-12-03T04:04:35.211Z,101637.88
2022-12-03T04:07:01.813Z,101631.84
2022-12-03T04:09:28.257Z,101629.28
2022-12-03T04:12:13.260Z,101634.47
2022-12-03T04:14:39.669Z,101627.56
2022-12-03T04:17:06.122Z,101629.28
2022-12-03T04:19:32.557Z,101630.97
2022-12-03T04:22:17.361Z,101628.41
2022-12-03T04:24:43.940Z,101630.97
2022-12-03T04:27:28.943Z,101619.97
2022-12-03T04:29:55.355Z,101627.56
2022-12-03T04:32:40.372Z,101626.75
2022-12-03T04:35:25.892Z,101625.00
2022-12-03T04:37:52.386Z,101625.94
2022-12-03T04:40:37.392Z,101623.38
2022-12-03T04:43:03.894Z,101618.25
2022-12-03T04:45:30.420Z,101619.91
2022-12-03T04:47:56.894Z,101617.31
2022-12-03T04:50:23.342Z,101617.38
2022-12-03T04:52:49.820Z,101609.66
2022-12-03T04:55:16.387Z,101611.41
2022-12-03T04:57:42.840Z,101613.22
2022-12-03T05:00:09.947Z,101607.06
2022-12-03T05:02:36.460Z,101622.72
2022-12-03T05:05:02.971Z,101611.50
2022-12-03T05:07:29.469Z,101608.06
2022-12-03T05:09:55.921Z,101603.81
2022-12-03T05:12:22.398Z,101605.63
2022-12-03T05:14:48.864Z,101603.94
2022-12-03T05:17:15.285Z,101607.38
2022-12-03T05:20:00.134Z,101611.63
2022-12-03T05:22:26.607Z,101612.44
2022-12-03T05:24:53.454Z,101603.03
2022-12-03T05:27:23.854Z,101617.56
2022-12-03T05:29:50.947Z,101608.16
2022-12-03T05:32:17.401Z,101615.09
2022-12-03T05:34:43.957Z,101620.28
2022-12-03T05:37:10.441Z,101609.09
2022-12-03T05:39:37.284Z,101601.44
2022-12-03T05:42:27.214Z,101607.41
2022-12-03T05:44:53.807Z,101607.50
2022-12-03T05:47:20.408Z,101600.59
2022-12-03T05:49:46.915Z,101603.09
2022-12-03T05:52:13.351Z,101610.84
2022-12-03T05:54:39.804Z,101609.97
2022-12-03T05:57:06.271Z,101611.75
2022-12-03T05:59:32.785Z,101605.03
2022-12-03T06:01:59.241Z,101605.03
2022-12-03T06:04:25.717Z,101605.91
2022-12-03T06:06:52.173Z,101603.25
2022-12-03T06:09:18.629Z,101604.25
2022-12-03T06:11:45.118Z,101606.81
2022-12-03T06:14:11.555Z,101602.72
2022-12-03T06:16:38.108Z,101613.81
2022-12-03T06:19:04.686Z,101614.72
2022-12-03T06:21:31.194Z,101616.38
2022-12-03T06:23:57.742Z,101606.06
2022-12-03T06:26:24.160Z,101618.91
2022-12-03T06:28:50.658Z,101616.34
2022-12-03T06:31:17.151Z,101606.03
2022-12-03T06:33:43.690Z,101602.56
2022-12-03T06:36:10.183Z,101609.44
2022-12-03T06:38:36.671Z,101599.22
2022-12-03T06:41:03.127Z,101601.81
2022-12-03T06:43:30.968Z,101601.94
2022-12-03T06:45:57.444Z,101597.66
2022-12-03T06:48:23.918Z,101610.53
2022-12-03T06:50:50.399Z,101602.13
2022-12-03T06:53:16.905Z,101603.91
2022-12-03T06:55:43.448Z,101600.56
2022-12-03T06:58:09.895Z,101601.47
2022-12-03T07:00:51.465Z,101605.84
2022-12-03T07:03:17.937Z,101604.25
2022-12-03T07:05:44.468Z,101598.22
2022-12-03T07:08:10.994Z,101589.00
2022-12-03T07:10:37.459Z,101591.41
2022-12-03T07:13:04.028Z,101604.25
2022-12-03T07:15:30.523Z,101595.66
2022-12-03T07:17:57.099Z,101597.34
2022-12-03T07:20:23.551Z,101604.34
2022-12-03T07:22:49.997Z,101600.06
2022-12-03T07:25:21.396Z,101597.41
2022-12-03T07:27:49.729Z,101600.72
2022-12-03T07:30:17.650Z,101598.22
2022-12-03T07:32:44.203Z,101605.81
2022-12-03T07:35:10.682Z,101600.59
2022-12-03T07:37:37.440Z,101600.59
2022-12-03T07:40:04.982Z,101601.38
2022-12-03T07:42:31.556Z,101603.19
2022-12-03T07:44:58.018Z,101603.97
2022-12-03T07:47:24.507Z,101600.59
2022-12-03T07:49:51.004Z,101604.84
2022-12-03T07:52:17.476Z,101613.34
2022-12-03T07:54:44.211Z,101612.47
2022-12-03T07:57:10.676Z,101609.06
2022-12-03T07:59:37.228Z,101605.50
2022-12-03T08:02:04.023Z,101613.28
2022-12-03T08:04:30.574Z,101613.22
2022-12-03T08:06:57.016Z,101614.03
2022-12-03T08:09:23.543Z,101609.09
2022-12-03T08:11:50.144Z,101613.31
2022-12-03T08:14:18.668Z,101611.56
2022-12-03T08:16:46.717Z,101606.44
2022-12-03T08:19:15.396Z,101608.09
2022-12-03T08:21:42.596Z,101608.97
2022-12-03T08:24:14.345Z,101608.91
2022-12-03T08:26:42.004Z,101617.44
2022-12-03T08:29:10.224Z,101611.47
2022-12-03T08:31:36.915Z,101614.03
2022-12-03T08:34:23.269Z,101613.09
2022-12-03T08:36:52.399Z,101607.06
2022-12-03T08:39:44.488Z,101610.41
2022-12-03T08:42:35.490Z,101616.34
2022-12-03T08:45:30.331Z,101608.50
2022-12-03T08:48:03.109Z,101612.75
2022-12-03T08:50:32.332Z,101619.41
2022-12-03T08:53:20.613Z,101618.59
2022-12-03T08:55:51.631Z,101609.22
2022-12-03T08:58:20.703Z,101613.44
2022-12-03T09:00:47.372Z,101604.06
2022-12-03T09:03:19.251Z,101615.00
2022-12-03T09:05:45.742Z,101608.09
2022-12-03T09:08:12.259Z,101607.13
2022-12-03T09:10:38.768Z,101606.25
2022-12-03T09:13:05.204Z,101610.47
2022-12-03T09:15:31.711Z,101599.22
2022-12-03T09:17:58.188Z,101612.13
2022-12-03T09:20:24.651Z,101613.09
2022-12-03T09:22:51.146Z,101614.69
2022-12-03T09:25:17.688Z,101616.34
2022-12-03T09:27:44.159Z,101613.06
2022-12-03T09:30:10.970Z,101612.34
2022-12-03T09:32:37.467Z,101612.13
2022-12-03T09:35:04.917Z,101611.19
2022-12-03T09:37:31.472Z,101611.16
2022-12-03T09:39:57.909Z,101607.72
2022-12-03T09:42:25.436Z,101612.84
2022-12-03T09:44:52.780Z,101604.19
2022-12-03T09:47:20.633Z,101611.06
2022-12-03T09:49:47.114Z,101611.03
2022-12-03T09:52:26.256Z,101609.22
2022-12-03T09:54:54.346Z,101600.53
2022-12-03T09:57:21.092Z,101601.28
2022-12-03T09:59:47.613Z,101598.59
2022-12-03T10:02:24.919Z,101585.59
2022-12-03T10:04:53.015Z,101592.38
2022-12-03T10:07:20.595Z,101581.09
2022-12-03T10:09:47.130Z,101587.91
2022-12-03T10:12:15.053Z,101586.84
2022-12-03T10:14:42.964Z,101581.53
2022-12-03T10:17:11.474Z,101575.53
2022-12-03T10:19:39.531Z,101576.25
2022-12-03T10:22:06.030Z,101574.50
2022-12-03T10:24:34.378Z,101572.09
2022-12-03T10:27:04.278Z,101562.88
2022-12-03T10:29:35.763Z,101556.09
2022-12-03T10:32:06.403Z,101553.44
2022-12-03T10:34:40.780Z,101551.66
2022-12-03T10:37:09.365Z,101546.50
2022-12-03T10:39:58.552Z,101538.13
2022-12-03T10:42:30.405Z,101544.63
2022-12-03T10:45:22.805Z,101538.03
2022-12-03T10:48:26.257Z,101529.41
2022-12-03T10:51:03.272Z,101538.81
2022-12-03T10:53:32.525Z,101526.72
2022-12-03T10:56:01.906Z,101519.84
2022-12-03T10:58:31.571Z,101525.69
2022-12-03T11:00:59.267Z,101516.06
2022-12-03T11:03:29.416Z,101513.41
2022-12-03T11:05:57.289Z,101512.50
2022-12-03T11:08:26.833Z,101505.66
2022-12-03T11:10:59.263Z,101516.81
2022-12-03T11:13:34.906Z,101513.34
2022-12-03T11:16:03.081Z,101507.13
2022-12-03T11:18:38.771Z,101508.81
2022-12-03T11:21:13.914Z,101501.69
2022-12-03T11:23:46.555Z,101497.41
2022-12-03T11:26:39.036Z,101497.47
2022-12-03T11:29:14.006Z,101504.13
2022-12-03T11:31:45.649Z,101494.50
2022-12-03T11:34:18.290Z,101481.31
2022-12-03T11:37:09.492Z,101477.84
2022-12-03T11:40:03.593Z,101481.28
2022-12-03T11:42:39.108Z,101480.22
2022-12-03T11:45:05.530Z,101479.41
2022-12-03T11:47:36.922Z,101479.19
2022-12-03T11:50:23.901Z,101470.47
2022-12-03T11:53:01.078Z,101468.28
2022-12-03T11:55:38.377Z,101471.56
2022-12-03T11:58:14.607Z,101463.81
2022-12-03T12:00:51.172Z,101460.31
2022-12-03T12:03:32.868Z,101460.44
2022-12-03T12:06:21.116Z,101453.50
2022-12-03T12:08:50.586Z,101454.69
2022-12-03T12:11:19.410Z,101448.34
2022-12-03T12:13:58.204Z,101451.72
2022-12-03T12:16:47.602Z,101443.06
2022-12-03T12:19:29.505Z,101445.81
2022-12-03T12:22:12.110Z,101438.22
2022-12-03T12:24:40.562Z,101436.53
2022-12-03T12:27:08.657Z,101432.13
2022-12-03T12:29:36.501Z,101436.13
2022-12-03T12:32:05.737Z,101428.34
2022-12-03T12:34:32.307Z,101421.59
2022-12-03T12:37:00.898Z,101425.75
2022-12-03T12:39:29.894Z,101422.38
2022-12-03T12:41:57.622Z,101429.28
2022-12-03T12:44:26.200Z,101422.28
2022-12-03T12:46:54.767Z,101416.34
2022-12-03T12:49:26.692Z,101416.63
2022-12-03T12:51:53.677Z,101403.69
2022-12-03T12:54:20.196Z,101416.38
2022-12-03T12:56:49.970Z,101412.13
2022-12-03T12:59:19.864Z,101410.53
2022-12-03T13:01:48.462Z,101418.91
2022-12-03T13:04:17.592Z,101406.81
2022-12-03T13:06:45.098Z,101397.81
2022-12-03T13:09:17.914Z,101391.91
2022-12-03T13:11:46.812Z,101395.09
2022-12-03T13:14:20.206Z,101400.31
2022-12-03T13:16:48.671Z,101393.63
2022-12-03T13:19:24.154Z,101389.41
2022-12-03T13:21:53.541Z,101391.94
2022-12-03T13:24:34.814Z,101395.25
2022-12-03T13:27:13.548Z,101398.53
2022-12-03T13:29:40.246Z,101392.63
2022-12-03T13:32:32.393Z,101384.94
2022-12-03T13:35:31.552Z,101374.59
2022-12-03T13:37:59.196Z,101372.94
2022-12-03T13:40:35.581Z,101375.63
2022-12-03T13:43:14.419Z,101371.41
2022-12-03T13:45:45.033Z,101382.47
2022-12-03T13:48:17.858Z,101382.63
2022-12-03T13:50:46.034Z,101366.34
2022-12-03T13:53:29.337Z,101378.28
2022-12-03T13:56:03.420Z,101366.28
2022-12-03T13:58:29.966Z,101367.16
2022-12-03T14:00:56.435Z,101361.25
2022-12-03T14:03:23.397Z,101367.97
2022-12-03T14:05:49.932Z,101363.72
2022-12-03T14:08:16.580Z,101360.34
2022-12-03T14:10:43.166Z,101356.91
2022-12-03T14:13:09.659Z,101356.91
2022-12-03T14:15:36.145Z,101361.25
2022-12-03T14:18:02.661Z,101357.88
2022-12-03T14:20:29.176Z,101357.03
2022-12-03T14:22:59.203Z,101356.19
2022-12-03T14:25:26.231Z,101363.25
2022-12-03T14:27:52.731Z,101360.69
2022-12-03T14:30:19.206Z,101355.66
2022-12-03T14:32:45.756Z,101353.13
2022-12-03T14:35:12.245Z,101356.44
2022-12-03T14:37:38.763Z,101357.34
2022-12-03T14:40:08.833Z,101359.13
2022-12-03T14:42:36.656Z,101355.72
2022-12-03T14:45:03.550Z,101354.91
2022-12-03T14:47:30.088Z,101355.88
2022-12-03T14:49:57.114Z,101356.75
2022-12-03T14:52:23.758Z,101358.44
2022-12-03T14:54:50.200Z,101373.06
2022-12-03T14:57:17.266Z,101363.69
2022-12-03T14:59:44.812Z,101356.88
2022-12-03T15:02:12.483Z,101349.16
2022-12-03T15:04:40.588Z,101354.31
2022-12-03T15:07:07.836Z,101355.97
2022-12-03T15:09:34.356Z,101354.34
2022-12-03T15:12:00.980Z,101353.59
2022-12-03T15:14:27.980Z,101354.50
2022-12-03T15:16:54.629Z,101344.16
2022-12-03T15:19:21.242Z,101352.81
2022-12-03T15:21:47.805Z,101354.56
2022-12-03T15:24:14.347Z,101359.75
2022-12-03T15:26:40.869Z,101357.81
2022-12-03T15:29:07.426Z,101352.66
2022-12-03T15:31:33.980Z,101355.41
2022-12-03T15:34:00.703Z,101348.00
2022-12-03T15:36:27.183Z,101351.38
2022-12-03T15:38:53.717Z,101354.78
2022-12-03T15:41:29.404Z,101348.69
2022-12-03T15:43:58.333Z,101356.41
2022-12-03T15:46:27.638Z,101358.09
2022-12-03T15:48:55.623Z,101352.84
2022-12-03T15:51:22.219Z,101342.75
2022-12-03T15:53:50.235Z,101340.19
2022-12-03T15:56:16.749Z,101354.78
2022-12-03T15:58:43.423Z,101348.69
2022-12-03T16:01:10.413Z,101351.25
2022-12-03T16:03:37.137Z,101353.16
2022-12-03T16:06:03.774Z,101349.72
2022-12-03T16:08:30.326Z,101350.53
2022-12-03T16:10:56.877Z,101353.91
2022-12-03T16:13:23.555Z,101347.03
2022-12-03T16:15:50.019Z,101350.63
2022-12-03T16:18:16.605Z,101341.16
2022-12-03T16:20:43.224Z,101343.59
2022-12-03T16:23:09.753Z,101345.28
2022-12-03T16:25:36.365Z,101351.28
2022-12-03T16:28:03.209Z,101350.56
2022-12-03T16:30:29.717Z,101350.53
2022-12-03T16:32:56.223Z,101342.91
2022-12-03T16:35:22.719Z,101341.22
2022-12-03T16:37:49.289Z,101343.25
2022-12-03T16:40:15.823Z,101338.13
2022-12-03T16:42:42.360Z,101331.16
2022-12-03T16:45:09.355Z,101338.84
2022-12-03T16:47:35.904Z,101343.34
2022-12-03T16:50:04.566Z,101340.63
2022-12-03T16:52:31.118Z,101344.00
2022-12-03T16:54:57.574Z,101339.66
2022-12-03T16:57:26.574Z,101338.84
2022-12-03T16:59:56.931Z,101334.72
2022-12-03T17:02:23.624Z,101336.53
2022-12-03T17:04:50.164Z,101340.69
2022-12-03T17:07:16.678Z,101337.34
2022-12-03T17:09:43.290Z,101334.06
2022-12-03T17:12:09.855Z,101335.75
2022-12-03T17:14:36.391Z,101333.25
2022-12-03T17:17:03.735Z,101331.56
2022-12-03T17:19:30.273Z,101330.66
2022-12-03T17:21:57.261Z,101340.97
2022-12-03T17:24:23.737Z,101337.50
2022-12-03T17:26:50.215Z,101336.66
2022-12-03T17:29:16.780Z,101344.31
2022-12-03T17:31:43.412Z,101333.22
2022-12-03T17:34:10.027Z,101331.50
2022-12-03T17:36:36.670Z,101340.06
2022-12-03T17:39:03.575Z,101330.66
2022-12-03T17:41:30.115Z,101323.88
2022-12-03T17:43:56.616Z,101335.94
2022-12-03T17:46:23.178Z,101334.25
2022-12-03T17:48:49.716Z,101325.75
2022-12-03T17:51:16.373Z,101324.88
2022-12-03T17:53:42.944Z,101325.63
2022-12-03T17:56:09.647Z,101317.88
2022-12-03T17:58:36.138Z,101315.22
2022-12-03T18:01:03.446Z,101320.38
2022-12-03T18:03:30.395Z,101314.47
2022-12-03T18:05:56.943Z,101321.28
2022-12-03T18:08:23.508Z,101310.06
2022-12-03T18:10:50.243Z,101306.72
2022-12-03T18:13:16.797Z,101305.91
2022-12-03T18:15:43.432Z,101300.84
2022-12-03T18:18:10.377Z,101303.50
2022-12-03T18:20:37.349Z,101304.41
2022-12-03T18:23:04.737Z,101307.03
2022-12-03T18:25:31.457Z,101300.16
2022-12-03T18:27:58.096Z,101303.50
2022-12-03T18:30:24.701Z,101297.53
2022-12-03T18:32:51.258Z,101289.13
2022-12-03T18:35:18.100Z,101295.94
2022-12-03T18:37:44.934Z,101288.09
2022-12-03T18:40:24.579Z,101291.69
2022-12-03T18:42:52.883Z,101284.88
2022-12-03T18:45:19.443Z,101291.72
2022-12-03T18:47:46.092Z,101283.94
2022-12-03T18:50:13.442Z,101285.63
2022-12-03T18:52:40.341Z,101287.44
2022-12-03T18:55:07.797Z,101283.94
2022-12-03T18:57:34.377Z,101285.75
2022-12-03T19:00:00.945Z,101285.69
2022-12-03T19:05:13.906Z,101287.53
2022-12-03T19:07:41.185Z,101285.75
2022-12-03T19:10:08.732Z,101284.88
2022-12-03T19:12:36.272Z,101286.03
2022-12-03T19:15:03.926Z,101284.25
2022-12-03T19:17:30.912Z,101286.16
2022-12-03T19:19:57.743Z,101282.56
2022-12-03T19:22:24.554Z,101280.91
2022-12-03T19:24:51.140Z,101286.03
2022-12-03T19:27:17.955Z,101285.06
2022-12-03T19:29:47.433Z,101295.47
2022-12-03T19:32:13.991Z,101287.75
2022-12-03T19:34:40.689Z,101289.50
2022-12-03T19:37:07.162Z,101296.38
2022-12-03T19:39:33.993Z,101294.69
2022-12-03T19:42:00.449Z,101286.03
2022-12-03T19:44:26.909Z,101291.31
2022-12-03T19:46:55.036Z,101293.78
2022-12-03T19:49:21.561Z,101290.47
2022-12-03T19:51:48.355Z,101291.25
2022-12-03T19:54:15.108Z,101295.66
2022-12-03T19:56:41.604Z,101293.97
2022-12-03T19:59:08.178Z,101289.81
2022-12-03T20:01:36.416Z,101289.78
2022-12-03T20:04:03.954Z,101286.25
2022-12-03T20:06:32.597Z,101293.13
2022-12-03T20:09:01.798Z,101288.81
2022-12-03T20:11:31.407Z,101292.28
2022-12-03T20:14:01.014Z,101296.69
2022-12-03T20:16:28.661Z,101301.78
2022-12-03T20:19:00.436Z,101296.53
2022-12-03T20:21:30.119Z,101286.44
2022-12-03T20:23:56.687Z,101291.47
2022-12-03T20:26:24.606Z,101293.97
2022-12-03T20:28:53.927Z,101290.47
2022-12-03T20:31:22.639Z,101289.72
2022-12-03T20:33:54.058Z,101288.03
2022-12-03T20:36:22.601Z,101285.34
2022-12-03T20:38:53.235Z,101287.00
2022-12-03T20:41:19.815Z,101289.63
2022-12-03T20:43:46.703Z,101287.84
2022-12-03T20:46:21.177Z,101286.03
2022-12-03T20:48:48.180Z,101277.59
2022-12-03T20:51:17.257Z,101275.94
2022-12-03T20:53:44.321Z,101271.59
2022-12-03T20:56:18.371Z,101273.28
2022-12-03T20:58:44.886Z,101270.75
2022-12-03T21:01:16.228Z,101265.66
2022-12-03T21:03:44.342Z,101262.31
2022-12-03T21:06:11.822Z,101276.94
2022-12-03T21:08:42.564Z,101269.22
2022-12-03T21:11:13.608Z,101264.84
2022-12-03T21:13:44.158Z,101269.19
2022-12-03T21:16:14.175Z,101268.50
2022-12-03T21:18:41.626Z,101266.91
2022-12-03T21:21:10.672Z,101270.38
2022-12-03T21:23:37.332Z,101267.56
2022-12-03T21:26:08.934Z,101276.31
2022-12-03T21:28:37.419Z,101260.16
2022-12-03T21:31:06.701Z,101267.09
2022-12-03T21:33:34.098Z,101271.28
2022-12-03T21:36:01.019Z,101269.38
2022-12-03T21:38:29.172Z,101268.78
2022-12-03T21:40:56.767Z,101259.25
2022-12-03T21:43:24.096Z,101271.34
2022-12-03T21:45:51.426Z,101271.22
2022-12-03T21:48:18.675Z,101257.44
2022-12-03T21:50:46.169Z,101267.72
2022-12-03T21:53:12.983Z,101254.78
2022-12-03T21:55:40.705Z,101262.41
2022-12-03T21:58:09.987Z,101268.56
2022-12-03T22:00:36.592Z,101260.84
2022-12-03T22:03:03.222Z,101260.84
2022-12-03T22:05:29.802Z,101248.78
2022-12-03T22:07:56.331Z,101259.09
2022-12-03T22:10:23.441Z,101248.75
2022-12-03T22:12:50.023Z,101254.72
2022-12-03T22:15:19.184Z,101258.19
2022-12-03T22:17:46.560Z,101249.69
2022-12-03T22:20:13.300Z,101254.66
2022-12-03T22:22:40.044Z,101250.41
2022-12-03T22:25:07.151Z,101248.66
2022-12-03T22:27:33.711Z,101257.13
2022-12-03T22:30:00.219Z,101260.69
2022-12-03T22:32:26.957Z,101248.91
2022-12-03T22:34:53.461Z,101250.47
2022-12-03T22:37:19.989Z,101252.91
2022-12-03T22:39:46.506Z,101245.94
2022-12-03T22:42:12.990Z,101249.41
2022-12-03T22:44:39.489Z,101243.38
2022-12-03T22:47:06.094Z,101241.72
2022-12-03T22:49:32.592Z,101240.03
2022-12-03T22:51:59.120Z,101239.09
2022-12-03T22:54:25.580Z,101225.34
2022-12-03T22:56:52.040Z,101228.66
2022-12-03T22:59:18.549Z,101221.84
2022-12-03T23:01:45.063Z,101223.47
2022-12-03T23:04:12.005Z,101210.59
2022-12-03T23:06:39.121Z,101215.78
2022-12-03T23:09:07.036Z,101226.09
2022-12-03T23:11:33.894Z,101210.63
2022-12-03T23:14:00.368Z,101214.91
2022-12-03T23:16:32.481Z,101215.03
2022-12-03T23:19:00.818Z,101204.81
2022-12-03T23:21:30.633Z,101212.44
2022-12-03T23:23:59.282Z,101207.38
2022-12-03T23:26:26.418Z,101198.94
2022-12-03T23:28:53.276Z,101212.72
2022-12-03T23:31:23.652Z,101205.78
2022-12-03T23:33:51.382Z,101202.41
2022-12-03T23:36:18.024Z,101202.41
2022-12-03T23:38:44.955Z,101203.25
2022-12-03T23:41:14.784Z,101210.03
2022-12-03T23:43:41.975Z,101209.25
2022-12-03T23:46:20.643Z,101217.91
2022-12-03T23:48:47.373Z,101213.63
2022-12-03T23:51:17.610Z,101211.88
2022-12-03T23:53:44.858Z,101214.44
2022-12-03T23:56:14.711Z,101214.56
2022-12-03T23:58:41.216Z,101217.91
